Time;durP1;ratioP1;P1;durP2;ratioP2;P2;SDS_P1;SDS_P2;PMS_P1;PMS_P2;Temp;Humidity;BMP_temperature;BMP_pressure;BME280_temperature;BME280_humidity;BME280_pressure;Samples;Min_cycle;Max_cycle;Signal;HPM_P1;HPM_P2
2023/10/14 00:02:21;;;;;;;6.45;2.90;;;14.40;69.40;;;;;;5032304;28;20361;-69
2023/10/14 00:04:47;;;;;;;5.15;2.90;;;14.40;69.20;;;;;;5017667;28;20044;-69
2023/10/14 00:07:17;;;;;;;4.13;2.45;;;14.40;69.40;;;;;;5032831;28;20033;-69
2023/10/14 00:09:44;;;;;;;6.35;1.98;;;14.40;69.50;;;;;;5033513;28;20052;-69
2023/10/14 00:12:14;;;;;;;2.83;1.52;;;14.40;69.00;;;;;;5014603;28;20037;-68
2023/10/14 00:14:44;;;;;;;3.33;2.63;;;14.40;68.90;;;;;;5033055;28;20045;-69
2023/10/14 00:17:15;;;;;;;3.80;1.98;;;14.30;68.80;;;;;;5015387;28;20117;-69
2023/10/14 00:19:41;;;;;;;3.05;2.13;;;14.30;69.50;;;;;;5016371;28;20413;-69
2023/10/14 00:22:08;;;;;;;4.93;1.23;;;14.30;69.50;;;;;;5032277;28;20042;-69
2023/10/14 00:24:37;;;;;;;5.15;3.28;;;14.30;69.50;;;;;;5033152;28;20054;-69
2023/10/14 00:27:07;;;;;;;4.65;1.95;;;14.30;69.40;;;;;;5032300;28;20465;-69
2023/10/14 00:29:35;;;;;;;3.42;2.15;;;14.30;69.40;;;;;;5015324;28;20505;-69
2023/10/14 00:32:04;;;;;;;8.55;2.45;;;14.30;69.20;;;;;;5031758;28;20394;-69
2023/10/14 00:34:30;;;;;;;4.22;3.60;;;14.30;69.50;;;;;;5015365;28;20052;-69
2023/10/14 00:36:56;;;;;;;2.83;1.95;;;14.20;69.50;;;;;;5032261;28;20033;-69
2023/10/14 00:39:24;;;;;;;;;;;14.20;70.30;;;;;;5033546;28;20103;-69
2023/10/14 00:41:50;;;;;;;4.55;2.15;;;14.10;69.50;;;;;;5014155;28;19924;-69
2023/10/14 00:44:18;;;;;;;2.10;1.00;;;14.00;68.90;;;;;;5032737;28;20041;-69
2023/10/14 00:46:48;;;;;;;3.08;1.70;;;14.00;69.30;;;;;;5030847;28;20113;-69
2023/10/14 00:49:31;;;;;;;2.72;1.85;;;14.00;69.30;;;;;;5033114;28;20096;-69
2023/10/14 00:52:06;;;;;;;2.58;1.70;;;14.00;69.40;;;;;;5031421;28;20384;-69
2023/10/14 00:59:55;;;;;;;3.78;2.40;;;13.90;69.80;;;;;;5032516;28;20052;-69
2023/10/14 01:05:19;;;;;;;2.90;1.25;;;13.90;69.70;;;;;;5018074;28;20046;-69
2023/10/14 01:07:47;;;;;;;4.43;2.67;;;13.80;69.30;;;;;;5032476;28;20030;-69
2023/10/14 01:10:24;;;;;;;2.58;0.82;;;13.70;69.30;;;;;;5014105;28;20053;-68
2023/10/14 01:12:54;;;;;;;4.10;1.98;;;13.70;69.60;;;;;;5016410;28;20410;-68
2023/10/14 01:15:21;;;;;;;2.92;1.70;;;13.70;69.60;;;;;;5031467;28;20445;-69
2023/10/14 01:17:54;;;;;;;3.25;1.75;;;13.60;71.10;;;;;;5032352;28;20037;-69
2023/10/14 01:22:51;;;;;;;;;;;13.70;70.40;;;;;;5015090;28;20053;-69
2023/10/14 01:25:19;;;;;;;4.60;2.88;;;13.70;70.50;;;;;;5014724;28;19921;-69
2023/10/14 01:27:45;;;;;;;2.83;1.95;;;13.70;70.70;;;;;;5014544;28;20033;-69
2023/10/14 01:33:16;;;;;;;5.07;2.90;;;13.70;70.10;;;;;;5031698;28;20045;-68
2023/10/14 01:35:45;;;;;;;4.45;2.47;;;13.70;70.20;;;;;;5031646;28;20045;-69
2023/10/14 01:38:11;;;;;;;4.78;3.15;;;13.70;70.60;;;;;;5014403;28;20029;-69
2023/10/14 01:43:30;;;;;;;5.10;3.25;;;13.70;71.80;;;;;;5017270;28;20510;-69
2023/10/14 01:48:32;;;;;;;9.10;3.17;;;13.70;72.60;;;;;;5032223;28;20159;-69
2023/10/14 01:50:59;;;;;;;8.48;3.25;;;13.70;72.80;;;;;;5031268;28;20042;-69
2023/10/14 01:53:28;;;;;;;4.25;2.38;;;13.70;73.30;;;;;;5030445;28;20037;-69
2023/10/14 01:55:58;;;;;;;5.93;3.55;;;13.70;74.00;;;;;;5031250;28;20053;-69
2023/10/14 02:03:50;;;;;;;5.97;3.67;;;14.00;74.50;;;;;;5014230;28;20076;-69
2023/10/14 02:06:26;;;;;;;4.47;2.63;;;13.90;74.00;;;;;;5013265;28;20057;-69
2023/10/14 02:08:58;;;;;;;5.45;2.42;;;13.90;73.60;;;;;;5014156;28;20030;-69
2023/10/14 02:11:25;;;;;;;2.03;1.88;;;13.80;72.70;;;;;;5030635;28;20136;-68
2023/10/14 02:13:52;;;;;;;8.98;2.00;;;13.80;72.80;;;;;;5014309;28;20371;-69
2023/10/14 02:19:36;;;;;;;4.05;1.77;;;13.80;73.30;;;;;;5035502;28;20107;-69
2023/10/14 02:22:03;;;;;;;6.78;3.10;;;13.90;74.00;;;;;;5034216;28;20037;-69
2023/10/14 02:24:30;;;;;;;3.67;1.58;;;13.90;73.50;;;;;;5017493;28;20059;-69
2023/10/14 02:26:57;;;;;;;2.72;1.77;;;14.00;73.20;;;;;;5016671;28;20021;-69
2023/10/14 02:29:24;;;;;;;6.88;2.75;;;14.00;73.00;;;;;;5017493;28;20116;-69
2023/10/14 02:31:51;;;;;;;6.30;2.35;;;14.00;73.00;;;;;;5034281;28;20379;-69
2023/10/14 02:34:18;;;;;;;2.75;1.50;;;14.00;72.20;;;;;;5034774;28;20379;-69
2023/10/14 02:39:29;;;;;;;3.80;1.55;;;14.00;72.60;;;;;;5019993;28;20102;-69
2023/10/14 02:44:48;;;;;;;2.35;1.23;;;13.90;72.60;;;;;;5019722;28;20158;-69
2023/10/14 02:47:14;;;;;;;2.80;2.10;;;13.90;72.50;;;;;;5017716;28;20025;-69
2023/10/14 02:49:41;;;;;;;5.78;2.20;;;13.90;71.80;;;;;;5017214;28;20045;-68
2023/10/14 02:52:11;;;;;;;3.40;2.55;;;13.90;72.50;;;;;;5015630;28;20041;-69
2023/10/14 02:55:18;;;;;;;4.93;1.45;;;13.90;72.30;;;;;;5017032;28;20037;-69
2023/10/14 02:57:40;;;;;;;5.07;2.10;;;13.90;72.60;;;;;;5034333;28;20037;-69
2023/10/14 03:00:17;;;;;;;9.80;2.70;;;13.90;72.70;;;;;;5015919;28;20060;-69
2023/10/14 03:06:05;;;;;;;2.70;1.92;;;13.90;72.90;;;;;;5018851;28;20053;-69
2023/10/14 03:08:28;;;;;;;3.90;2.50;;;13.90;72.60;;;;;;5021367;28;20453;-69
2023/10/14 03:10:59;;;;;;;4.55;3.40;;;13.90;72.50;;;;;;5033436;28;20087;-69
2023/10/14 03:13:29;;;;;;;3.45;2.08;;;13.90;72.50;;;;;;5017346;28;20041;-69
2023/10/14 03:15:56;;;;;;;4.53;2.10;;;13.90;72.50;;;;;;5033475;28;20049;-69
2023/10/14 03:18:30;;;;;;;2.67;1.90;;;13.80;71.60;;;;;;5016673;28;20112;-68
2023/10/14 03:23:27;;;;;;;2.40;1.73;;;13.80;71.90;;;;;;5033963;28;20057;-69
2023/10/14 03:26:05;;;;;;;2.58;1.75;;;13.80;72.00;;;;;;5032621;28;20474;-69
2023/10/14 03:28:34;;;;;;;1.95;1.40;;;13.70;71.80;;;;;;5032639;28;20046;-69
2023/10/14 03:31:00;;;;;;;3.47;2.40;;;13.70;72.00;;;;;;5031737;28;20494;-68
2023/10/14 03:33:29;;;;;;;6.53;2.55;;;13.70;72.10;;;;;;5032268;28;20042;-69
2023/10/14 03:38:25;;;;;;;1.30;0.68;;;13.70;71.90;;;;;;5033526;28;20124;-69
2023/10/14 03:43:44;;;;;;;3.50;2.20;;;13.70;71.90;;;;;;5018907;28;20049;-69
2023/10/14 03:46:12;;;;;;;2.47;1.92;;;13.70;71.30;;;;;;5033081;28;20108;-69
2023/10/14 03:48:48;;;;;;;3.75;2.47;;;13.60;71.20;;;;;;5033743;28;20041;-69
2023/10/14 03:54:12;;;;;;;2.53;1.73;;;13.60;71.30;;;;;;5019459;28;20389;-69
2023/10/14 03:56:45;;;;;;;5.90;2.80;;;13.60;71.50;;;;;;5033007;28;20079;-69
2023/10/14 03:59:33;;;;;;;3.13;2.08;;;13.50;71.60;;;;;;5016195;28;20045;-69
2023/10/14 04:02:07;;;;;;;3.45;2.60;;;13.50;71.70;;;;;;5032287;28;20038;-69
2023/10/14 04:04:42;;;;;;;2.78;2.25;;;13.50;71.70;;;;;;5033178;28;20037;-69
2023/10/14 04:09:46;;;;;;;;;;;13.40;72.20;;;;;;5033856;28;20045;-69
2023/10/14 04:15:14;;;;;;;3.70;2.03;;;13.40;72.60;;;;;;5018213;28;20041;-70
2023/10/14 04:17:48;;;;;;;4.28;2.90;;;13.40;72.70;;;;;;5017129;28;20060;-69
2023/10/14 04:20:26;;;;;;;9.80;4.25;;;13.40;72.40;;;;;;5015188;28;20037;-69
2023/10/14 04:22:57;;;;;;;2.85;1.75;;;13.40;73.50;;;;;;5017403;28;20041;-68
2023/10/14 04:30:44;;;;;;;7.07;1.98;;;13.50;74.00;;;;;;5032039;28;20115;-70
2023/10/14 04:38:42;;;;;;;2.80;1.55;;;13.60;74.20;;;;;;5032954;28;20043;-70
2023/10/14 04:41:13;;;;;;;3.72;1.83;;;13.50;73.90;;;;;;5013878;28;20494;-69
2023/10/14 04:46:32;;;;;;;7.53;2.60;;;13.50;73.60;;;;;;5016141;28;20095;-69
2023/10/14 04:48:59;;;;;;;3.85;2.10;;;13.50;73.50;;;;;;5032816;28;20045;-69
2023/10/14 04:51:36;;;;;;;3.30;2.17;;;13.50;73.50;;;;;;5030475;28;20041;-69
2023/10/14 04:54:07;;;;;;;2.58;2.08;;;13.50;73.60;;;;;;5016545;28;20034;-69
2023/10/14 04:56:33;;;;;;;7.60;3.58;;;13.50;73.50;;;;;;5032010;28;20037;-69
2023/10/14 04:59:00;;;;;;;2.13;1.30;;;13.50;73.60;;;;;;5032705;28;20036;-69
2023/10/14 05:01:27;;;;;;;;;;;13.50;73.90;;;;;;5032191;28;20548;-69
2023/10/14 05:03:57;;;;;;;4.35;2.00;;;13.50;73.60;;;;;;5015005;28;19921;-69
2023/10/14 05:06:29;;;;;;;4.70;2.63;;;13.40;73.60;;;;;;5014852;28;20030;-70
2023/10/14 05:08:56;;;;;;;7.25;2.63;;;13.40;73.80;;;;;;5032654;28;20124;-70
2023/10/14 05:11:25;;;;;;;4.80;2.30;;;13.40;73.90;;;;;;5031610;28;20044;-69
2023/10/14 05:14:14;;;;;;;5.97;2.88;;;13.40;73.80;;;;;;5032537;28;20084;-69
2023/10/14 05:16:56;;;;;;;6.00;3.60;;;13.40;73.50;;;;;;5031774;28;20029;-69
2023/10/14 05:19:24;;;;;;;2.60;2.17;;;13.40;73.40;;;;;;5016679;28;20038;-69
2023/10/14 05:22:05;;;;;;;2.78;1.70;;;13.40;73.40;;;;;;5031231;28;20041;-69
2023/10/14 05:24:31;;;;;;;3.90;2.38;;;13.40;73.30;;;;;;5016300;28;20089;-69
2023/10/14 05:29:50;;;;;;;1.30;0.88;;;13.40;73.50;;;;;;5017335;28;20168;-69
2023/10/14 05:32:36;;;;;;;3.10;1.73;;;13.40;73.70;;;;;;5031355;28;20037;-69
2023/10/14 05:35:09;;;;;;;5.30;2.50;;;13.40;73.60;;;;;;5032199;28;20037;-69
2023/10/14 05:37:36;;;;;;;3.75;2.58;;;13.40;72.90;;;;;;4994044;28;20029;-69
2023/10/14 05:40:04;;;;;;;6.75;3.55;;;13.40;73.40;;;;;;4994747;28;20108;-69
2023/10/14 05:42:30;;;;;;;2.85;1.80;;;13.40;72.80;;;;;;5012078;28;20045;-70
2023/10/14 05:47:42;;;;;;;3.15;2.13;;;13.40;73.20;;;;;;5012316;28;20041;-70
2023/10/14 05:50:14;;;;;;;4.90;3.45;;;13.30;73.20;;;;;;4996346;28;20487;-70
2023/10/14 05:52:43;;;;;;;4.38;2.15;;;13.40;73.10;;;;;;4999137;28;20454;-69
2023/10/14 05:55:09;;;;;;;9.23;3.33;;;13.40;73.10;;;;;;4997108;28;20479;-70
2023/10/14 05:57:39;;;;;;;4.03;2.70;;;13.50;73.30;;;;;;5029214;28;20029;-69
2023/10/14 06:03:00;;;;;;;5.40;1.83;;;13.60;73.60;;;;;;5025140;28;20053;-69
2023/10/14 06:05:31;;;;;;;4.10;2.00;;;13.60;73.20;;;;;;5017171;28;20029;-69
2023/10/14 06:10:44;;;;;;;2.25;1.00;;;13.60;73.90;;;;;;5019977;28;20033;-69
2023/10/14 06:13:11;;;;;;;6.00;1.50;;;13.70;74.00;;;;;;5016833;28;20061;-70
2023/10/14 06:15:44;;;;;;;1.48;1.10;;;13.80;73.80;;;;;;5016886;28;20382;-69
2023/10/14 06:18:14;;;;;;;3.28;1.80;;;13.80;73.70;;;;;;5034826;28;20064;-69
2023/10/14 06:20:45;;;;;;;2.80;1.88;;;13.90;73.80;;;;;;5017004;28;20029;-69
2023/10/14 06:23:12;;;;;;;6.05;1.67;;;14.00;74.10;;;;;;5023771;28;20088;-69
2023/10/14 06:25:38;;;;;;;2.25;1.20;;;14.00;73.90;;;;;;5020206;28;20033;-69
2023/10/14 06:28:07;;;;;;;2.75;1.58;;;14.10;73.70;;;;;;5055131;28;20394;-69
2023/10/14 06:30:33;;;;;;;2.03;1.73;;;14.20;74.60;;;;;;5054106;28;20390;-69
2023/10/14 06:35:44;;;;;;;3.17;1.52;;;14.30;74.60;;;;;;5033008;28;19919;-70
2023/10/14 06:38:17;;;;;;;2.10;1.50;;;14.40;75.00;;;;;;5034932;28;20524;-69
2023/10/14 06:40:44;;;;;;;5.55;3.08;;;14.50;75.00;;;;;;5016936;28;20037;-69
2023/10/14 06:43:10;;;;;;;2.20;1.73;;;14.70;75.20;;;;;;5034626;28;20041;-69
2023/10/14 06:45:37;;;;;;;5.57;3.25;;;14.70;75.40;;;;;;5033935;28;20441;-69
2023/10/14 06:48:09;;;;;;;4.72;3.42;;;14.90;75.60;;;;;;5000608;28;20030;-68
2023/10/14 06:53:21;;;;;;;3.22;2.20;;;15.10;76.00;;;;;;5019744;28;20650;-67
2023/10/14 06:55:49;;;;;;;2.35;1.48;;;15.30;76.20;;;;;;5016808;28;20417;-67
2023/10/14 06:58:27;;;;;;;4.57;2.97;;;15.40;76.20;;;;;;5017307;28;20037;-67
2023/10/14 07:00:57;;;;;;;3.47;2.75;;;15.50;75.70;;;;;;5032237;28;20080;-68
2023/10/14 07:03:23;;;;;;;3.47;1.10;;;15.60;76.40;;;;;;5034251;28;20040;-67
2023/10/14 07:08:21;;;;;;;3.70;2.38;;;15.80;76.90;;;;;;5034035;28;20073;-67
2023/10/14 07:10:50;;;;;;;3.55;2.15;;;16.00;76.50;;;;;;5018904;28;20064;-67
2023/10/14 07:13:38;;;;;;;3.35;1.98;;;16.10;76.40;;;;;;5016574;28;20044;-67
2023/10/14 07:16:06;;;;;;;4.00;1.17;;;16.20;76.50;;;;;;4999747;28;20128;-67
2023/10/14 07:18:36;;;;;;;2.63;1.95;;;16.40;75.80;;;;;;5016832;28;20088;-67
2023/10/14 07:21:03;;;;;;;4.07;2.15;;;16.50;76.00;;;;;;5032141;28;20558;-68
2023/10/14 07:23:47;;;;;;;5.13;3.03;;;16.60;75.20;;;;;;5033048;28;20057;-68
2023/10/14 07:26:14;;;;;;;3.08;2.10;;;16.80;75.80;;;;;;5033370;28;20048;-67
2023/10/14 07:28:51;;;;;;;4.75;2.60;;;16.90;75.50;;;;;;5033981;28;20414;-67
2023/10/14 07:31:19;;;;;;;2.03;1.38;;;17.00;75.30;;;;;;5015173;28;20046;-67
2023/10/14 07:33:45;;;;;;;3.35;2.17;;;17.10;75.70;;;;;;5014671;28;20390;-67
2023/10/14 07:36:11;;;;;;;;;;;17.30;75.90;;;;;;5012519;28;20117;-68
2023/10/14 07:38:38;;;;;;;2.55;1.70;;;17.50;75.70;;;;;;5031982;28;20016;-68
2023/10/14 07:41:05;;;;;;;1.60;0.98;;;17.50;75.10;;;;;;5014867;28;20042;-67
2023/10/14 07:46:16;;;;;;;1.83;1.40;;;17.90;76.60;;;;;;5031420;28;20191;-67
2023/10/14 07:48:42;;;;;;;2.78;1.48;;;18.10;75.90;;;;;;5012601;28;20046;-68
2023/10/14 07:51:08;;;;;;;3.63;1.88;;;18.30;75.50;;;;;;5012637;28;20038;-67
2023/10/14 07:53:34;;;;;;;4.88;3.00;;;18.50;75.10;;;;;;5012534;28;20034;-68
2023/10/14 07:56:00;;;;;;;1.52;1.08;;;19.20;73.20;;;;;;4995508;28;20042;-67
2023/10/14 07:58:27;;;;;;;;;;;21.00;67.50;;;;;;5014309;28;20034;-68
2023/10/14 08:00:55;;;;;;;4.20;1.67;;;22.60;63.60;;;;;;4996185;28;19952;-68
2023/10/14 08:03:39;;;;;;;3.13;1.95;;;23.90;58.30;;;;;;4995256;28;20215;-68
2023/10/14 08:06:10;;;;;;;4.18;2.65;;;25.20;55.50;;;;;;5012956;28;20545;-68
2023/10/14 08:08:47;;;;;;;1.92;1.30;;;26.10;52.10;;;;;;4995996;28;20041;-68
2023/10/14 08:11:14;;;;;;;1.55;0.90;;;27.10;49.20;;;;;;5012561;28;20104;-68
2023/10/14 08:13:42;;;;;;;1.67;1.13;;;27.80;45.80;;;;;;5013050;28;20038;-68
2023/10/14 08:16:08;;;;;;;1.30;1.05;;;28.40;43.80;;;;;;5020096;28;20034;-68
2023/10/14 08:18:35;;;;;;;4.47;1.52;;;28.90;40.60;;;;;;5005173;28;20430;-68
2023/10/14 08:21:03;;;;;;;4.47;2.33;;;29.50;39.40;;;;;;4998576;28;20068;-68
2023/10/14 08:23:29;;;;;;;2.05;1.75;;;30.00;38.10;;;;;;5012540;28;20062;-68
2023/10/14 08:25:56;;;;;;;1.88;1.63;;;30.70;37.20;;;;;;5009384;28;20045;-68
2023/10/14 08:28:42;;;;;;;4.22;2.67;;;31.10;35.10;;;;;;5013047;28;20498;-68
2023/10/14 08:31:08;;;;;;;4.85;2.58;;;31.80;34.10;;;;;;5012126;28;20095;-68
2023/10/14 08:33:36;;;;;;;6.00;2.20;;;32.30;32.70;;;;;;5011357;28;20426;-70
2023/10/14 08:36:03;;;;;;;1.95;1.30;;;32.90;31.30;;;;;;5018431;28;20551;-70
2023/10/14 08:38:29;;;;;;;2.60;1.63;;;33.20;31.20;;;;;;5030946;28;20048;-70
2023/10/14 08:43:49;;;;;;;2.35;1.45;;;34.50;29.30;;;;;;5017781;28;20095;-70
2023/10/14 08:46:18;;;;;;;2.92;1.92;;;35.10;28.10;;;;;;5015276;28;20025;-70
2023/10/14 08:48:46;;;;;;;1.90;1.25;;;35.60;27.50;;;;;;5014984;28;20038;-70
2023/10/14 08:51:14;;;;;;;2.83;1.77;;;35.80;26.90;;;;;;5013958;28;20401;-70
2023/10/14 08:53:42;;;;;;;2.20;1.20;;;36.00;27.00;;;;;;5014553;28;20041;-70
2023/10/14 08:56:08;;;;;;;1.95;1.38;;;36.00;25.60;;;;;;5031909;28;20037;-70
2023/10/14 08:58:36;;;;;;;2.00;1.40;;;36.00;25.60;;;;;;5014798;28;20041;-70
2023/10/14 09:01:06;;;;;;;4.25;2.22;;;36.60;24.70;;;;;;5031491;28;20398;-70
2023/10/14 09:03:32;;;;;;;3.33;1.15;;;36.80;24.70;;;;;;5014879;28;20037;-70
2023/10/14 09:05:58;;;;;;;3.53;1.38;;;36.60;25.10;;;;;;5031852;28;20034;-70
2023/10/14 09:08:33;;;;;;;1.85;0.90;;;34.80;26.10;;;;;;5032484;28;20083;-70
2023/10/14 09:10:59;;;;;;;4.55;2.17;;;33.10;27.70;;;;;;5031569;28;20050;-69
2023/10/14 09:13:25;;;;;;;1.95;1.60;;;32.10;29.50;;;;;;5014608;28;20032;-69
2023/10/14 09:15:51;;;;;;;1.88;1.00;;;31.10;29.80;;;;;;5031547;28;20048;-69
2023/10/14 09:18:36;;;;;;;1.25;0.93;;;30.40;30.60;;;;;;5014977;28;20037;-69
2023/10/14 09:21:05;;;;;;;2.70;0.98;;;29.90;32.40;;;;;;5031529;28;20091;-69
2023/10/14 09:26:18;;;;;;;1.40;0.88;;;29.20;34.10;;;;;;5036059;28;20387;-69
2023/10/14 09:28:45;;;;;;;1.77;1.15;;;28.70;34.70;;;;;;5018813;28;20037;-69
2023/10/14 09:31:12;;;;;;;2.35;1.48;;;28.30;35.20;;;;;;5017658;28;20034;-69
2023/10/14 09:33:41;;;;;;;4.05;1.75;;;28.00;36.00;;;;;;5018006;28;20045;-69
2023/10/14 09:36:18;;;;;;;1.42;1.27;;;27.70;36.00;;;;;;5016638;28;20584;-69
2023/10/14 09:38:48;;;;;;;1.48;0.77;;;27.50;37.20;;;;;;5019722;28;20037;-69
2023/10/14 09:41:15;;;;;;;2.83;1.60;;;27.30;37.00;;;;;;5017318;28;20040;-69
2023/10/14 09:43:42;;;;;;;1.38;1.02;;;27.10;38.10;;;;;;5017933;28;20049;-69
2023/10/14 09:46:17;;;;;;;2.30;1.23;;;27.00;38.90;;;;;;5017718;28;20037;-69
2023/10/14 09:51:31;;;;;;;2.28;1.00;;;26.80;38.50;;;;;;5020082;28;20560;-69
2023/10/14 09:53:59;;;;;;;2.38;0.80;;;26.70;38.40;;;;;;5018275;28;20048;-69
2023/10/14 09:56:26;;;;;;;2.45;1.50;;;26.60;38.30;;;;;;5017687;28;20498;-69
2023/10/14 09:58:53;;;;;;;0.32;0.22;;;26.60;38.90;;;;;;5017985;28;20441;-68
2023/10/14 10:01:19;;;;;;;1.75;1.00;;;26.60;38.00;;;;;;5017003;28;20037;-69
2023/10/14 10:04:24;;;;;;;1.08;0.75;;;26.50;39.00;;;;;;5035525;28;20099;-69
2023/10/14 10:07:46;;;;;;;1.85;1.38;;;26.60;39.60;;;;;;5000953;28;20044;-68
2023/10/14 10:10:20;;;;;;;2.20;1.25;;;26.60;37.90;;;;;;5034590;28;20045;-69
2023/10/14 10:12:53;;;;;;;1.10;0.88;;;26.50;38.40;;;;;;5017644;28;20036;-69
2023/10/14 10:15:19;;;;;;;0.85;0.80;;;26.60;39.90;;;;;;5034767;28;20422;-69
2023/10/14 10:18:06;;;;;;;2.33;1.38;;;26.60;37.90;;;;;;5017436;28;20118;-69
2023/10/14 10:20:37;;;;;;;1.98;0.77;;;26.50;37.10;;;;;;5016638;28;20026;-69
2023/10/14 10:23:07;;;;;;;0.73;0.50;;;26.50;37.20;;;;;;5017989;28;20053;-69
2023/10/14 10:25:52;;;;;;;2.63;1.30;;;26.50;37.80;;;;;;5012091;28;20088;-69
2023/10/14 10:28:37;;;;;;;2.90;1.75;;;26.50;37.40;;;;;;5015456;28;20030;-69
2023/10/14 10:31:23;;;;;;;5.75;1.23;;;26.60;37.10;;;;;;4996946;28;20368;-69
2023/10/14 10:34:08;;;;;;;1.92;1.67;;;26.60;37.20;;;;;;5014795;28;20041;-69
2023/10/14 10:36:37;;;;;;;2.03;0.70;;;26.70;37.80;;;;;;5012128;28;20026;-69
2023/10/14 10:39:21;;;;;;;2.03;0.93;;;26.70;37.80;;;;;;5014123;28;20528;-69
2023/10/14 10:42:08;;;;;;;1.38;0.95;;;26.70;38.10;;;;;;5012682;28;20091;-69
2023/10/14 10:44:34;;;;;;;1.63;1.35;;;26.80;37.70;;;;;;5031887;28;20091;-69
2023/10/14 10:47:02;;;;;;;1.55;0.73;;;27.00;38.00;;;;;;5007154;28;20070;-69
2023/10/14 10:50:07;;;;;;;1.27;0.70;;;27.20;37.30;;;;;;5015879;28;20037;-69
2023/10/14 10:52:37;;;;;;;1.08;0.77;;;27.10;35.80;;;;;;5032843;28;20052;-69
2023/10/14 10:55:03;;;;;;;1.52;0.82;;;27.00;36.80;;;;;;5034063;28;20470;-69
2023/10/14 10:57:32;;;;;;;1.02;0.85;;;27.00;37.80;;;;;;5023387;28;20044;-68
2023/10/14 10:59:59;;;;;;;2.05;1.00;;;26.90;36.70;;;;;;5031132;28;20048;-69
2023/10/14 11:02:25;;;;;;;0.93;0.60;;;26.90;36.20;;;;;;5023479;28;20045;-69
2023/10/14 11:04:51;;;;;;;0.93;0.82;;;26.90;37.00;;;;;;5032732;28;20430;-69
2023/10/14 11:07:19;;;;;;;2.13;1.38;;;27.00;37.20;;;;;;5016449;28;20030;-69
2023/10/14 11:09:49;;;;;;;2.28;1.55;;;27.00;36.30;;;;;;5034862;28;20258;-69
2023/10/14 11:12:18;;;;;;;0.77;0.68;;;27.10;37.40;;;;;;5016521;28;20487;-69
2023/10/14 11:14:44;;;;;;;2.05;1.27;;;27.60;35.50;;;;;;5032432;28;20459;-69
2023/10/14 11:17:10;;;;;;;4.85;1.85;;;27.90;35.50;;;;;;5033763;28;20037;-69
2023/10/14 11:19:36;;;;;;;1.38;0.95;;;28.30;34.40;;;;;;5034479;28;20116;-69
2023/10/14 11:22:04;;;;;;;2.90;1.05;;;28.90;33.70;;;;;;5032025;28;20038;-69
2023/10/14 11:24:31;;;;;;;1.63;1.25;;;28.60;34.00;;;;;;5016049;28;20057;-69
2023/10/14 11:26:59;;;;;;;2.25;1.55;;;28.20;33.50;;;;;;5033432;28;20025;-69
2023/10/14 11:29:27;;;;;;;0.47;0.47;;;28.10;33.50;;;;;;5016573;28;20061;-69
2023/10/14 11:32:12;;;;;;;1.00;0.73;;;28.00;35.70;;;;;;5015016;28;20514;-69
2023/10/14 11:34:41;;;;;;;0.75;0.65;;;28.00;35.00;;;;;;5033923;28;20140;-69
2023/10/14 11:39:53;;;;;;;1.75;1.05;;;28.50;34.30;;;;;;5034243;28;20406;-69
2023/10/14 11:42:19;;;;;;;5.60;2.53;;;29.00;33.80;;;;;;5031246;28;20504;-69
2023/10/14 11:44:50;;;;;;;3.20;0.88;;;28.70;33.40;;;;;;5015606;28;20033;-69
2023/10/14 11:47:17;;;;;;;1.55;0.88;;;28.50;34.20;;;;;;5031790;28;20414;-69
2023/10/14 11:50:11;;;;;;;0.95;0.80;;;28.30;34.10;;;;;;5034134;28;20140;-69
2023/10/14 11:52:47;;;;;;;1.17;1.00;;;28.60;34.80;;;;;;5015498;28;20426;-69
2023/10/14 11:55:16;;;;;;;;;;;30.80;30.80;;;;;;5032301;28;20107;-69
2023/10/14 11:58:01;;;;;;;1.35;0.98;;;31.80;28.70;;;;;;5033351;28;20328;-69
2023/10/14 12:00:27;;;;;;;7.75;1.33;;;31.60;29.40;;;;;;5014648;28;20482;-69
2023/10/14 12:02:54;;;;;;;1.58;0.73;;;32.20;28.80;;;;;;5015584;28;20022;-69
2023/10/14 12:05:21;;;;;;;2.20;0.85;;;32.50;27.00;;;;;;5032629;28;20083;-69
2023/10/14 12:07:47;;;;;;;2.13;1.25;;;32.30;27.20;;;;;;5015644;28;20030;-69
2023/10/14 12:10:13;;;;;;;0.80;0.60;;;32.70;27.30;;;;;;5017837;28;20095;-69
2023/10/14 12:12:39;;;;;;;1.75;0.98;;;33.70;26.00;;;;;;5015371;28;20262;-69
2023/10/14 12:15:07;;;;;;;2.10;1.20;;;32.60;26.70;;;;;;5015078;28;20307;-69
2023/10/14 12:17:52;;;;;;;2.45;1.40;;;31.50;27.90;;;;;;5015403;28;20487;-69
2023/10/14 12:20:19;;;;;;;1.88;1.17;;;30.90;29.00;;;;;;5050983;28;20036;-69
2023/10/14 12:22:47;;;;;;;2.83;1.35;;;31.00;29.40;;;;;;5052718;28;20029;-69
2023/10/14 12:25:17;;;;;;;1.63;0.95;;;31.30;29.30;;;;;;5052260;28;20044;-69
2023/10/14 12:27:43;;;;;;;3.45;1.02;;;31.40;28.50;;;;;;5035648;28;20115;-69
2023/10/14 12:30:28;;;;;;;1.23;1.02;;;32.50;25.80;;;;;;5051887;28;20033;-69
2023/10/14 12:32:56;;;;;;;1.77;0.68;;;34.00;25.00;;;;;;5037585;28;20120;-69
2023/10/14 12:35:28;;;;;;;1.20;0.77;;;35.20;23.60;;;;;;5034215;28;20120;-69
2023/10/14 12:37:59;;;;;;;0.63;0.63;;;36.50;21.80;;;;;;5052701;28;20040;-70
2023/10/14 12:40:29;;;;;;;0.50;0.50;;;37.60;21.10;;;;;;5043723;28;20041;-69
2023/10/14 12:43:01;;;;;;;0.55;0.55;;;37.80;19.50;;;;;;5015508;28;20036;-69
2023/10/14 12:45:28;;;;;;;1.25;1.05;;;37.30;20.80;;;;;;5034030;28;20065;-69
2023/10/14 12:48:09;;;;;;;1.45;1.05;;;37.30;20.70;;;;;;5025041;28;20442;-69
2023/10/14 12:50:46;;;;;;;1.25;0.95;;;38.40;20.20;;;;;;5031621;28;20029;-69
2023/10/14 12:53:13;;;;;;;2.17;1.30;;;39.50;19.10;;;;;;5015542;28;20550;-69
2023/10/14 12:55:44;;;;;;;3.13;1.88;;;39.70;17.50;;;;;;5014538;28;20034;-69
2023/10/14 12:58:12;;;;;;;3.55;1.38;;;39.10;18.90;;;;;;5032180;28;20466;-69
2023/10/14 13:00:42;;;;;;;2.38;1.13;;;38.70;18.70;;;;;;5013960;28;20037;-69
2023/10/14 13:03:12;;;;;;;1.70;1.10;;;38.30;19.30;;;;;;5031984;28;20037;-69
2023/10/14 13:05:38;;;;;;;1.58;1.00;;;37.80;19.20;;;;;;4998100;28;20033;-69
2023/10/14 13:08:05;;;;;;;1.38;0.70;;;38.20;18.90;;;;;;5032586;28;20038;-69
2023/10/14 13:10:32;;;;;;;0.85;0.70;;;39.30;18.90;;;;;;5031490;28;20076;-69
2023/10/14 13:13:00;;;;;;;0.98;0.65;;;40.20;18.20;;;;;;5014963;28;20120;-69
2023/10/14 13:15:29;;;;;;;3.03;2.08;;;40.80;17.20;;;;;;5014205;28;20116;-69
2023/10/14 13:17:58;;;;;;;1.05;0.80;;;41.40;17.30;;;;;;5014692;28;20049;-69
2023/10/14 13:20:45;;;;;;;1.25;0.95;;;41.40;16.20;;;;;;5013704;28;20045;-69
2023/10/14 13:23:14;;;;;;;1.63;1.33;;;41.30;16.40;;;;;;5032065;28;20053;-69
2023/10/14 13:25:40;;;;;;;3.92;1.33;;;41.40;17.00;;;;;;4998188;28;20054;-69
2023/10/14 13:28:09;;;;;;;1.23;1.05;;;41.20;16.40;;;;;;4998286;28;20088;-69
2023/10/14 13:30:58;;;;;;;1.08;0.80;;;40.80;16.50;;;;;;5030024;28;20061;-69
2023/10/14 13:33:24;;;;;;;2.17;1.40;;;41.10;17.30;;;;;;5031777;28;20029;-69
2023/10/14 13:35:55;;;;;;;2.00;1.10;;;41.40;16.90;;;;;;5031705;28;20041;-69
2023/10/14 13:38:23;;;;;;;1.35;1.05;;;41.40;16.60;;;;;;5014470;28;20509;-69
2023/10/14 13:40:50;;;;;;;1.10;0.98;;;41.10;16.60;;;;;;5013463;28;20041;-69
2023/10/14 13:43:17;;;;;;;2.83;1.58;;;40.60;16.60;;;;;;5032044;28;20494;-69
2023/10/14 13:45:44;;;;;;;0.57;0.55;;;40.80;17.40;;;;;;5013974;28;20037;-69
2023/10/14 13:48:13;;;;;;;1.20;0.93;;;40.50;16.00;;;;;;5014434;28;20088;-69
2023/10/14 13:50:39;;;;;;;1.52;0.98;;;40.30;17.20;;;;;;5013292;28;20042;-69
2023/10/14 13:53:23;;;;;;;2.05;1.55;;;40.20;17.20;;;;;;5014308;28;20037;-69
2023/10/14 13:55:55;;;;;;;1.05;0.75;;;40.30;17.10;;;;;;5016226;28;20049;-69
2023/10/14 14:01:08;;;;;;;5.03;1.60;;;40.20;17.50;;;;;;5031200;28;20041;-69
2023/10/14 14:03:36;;;;;;;2.63;1.40;;;39.80;17.30;;;;;;5013873;28;20033;-69
2023/10/14 14:06:25;;;;;;;2.33;2.00;;;39.40;17.90;;;;;;5031226;28;20401;-69
2023/10/14 14:08:53;;;;;;;1.58;0.90;;;39.10;18.40;;;;;;5015270;28;20425;-69
2023/10/14 14:11:20;;;;;;;1.27;1.17;;;39.10;18.50;;;;;;5015862;28;20494;-69
2023/10/14 14:13:47;;;;;;;1.77;1.30;;;39.60;18.00;;;;;;5017904;28;20038;-70
2023/10/14 14:16:14;;;;;;;1.60;1.02;;;39.70;18.20;;;;;;5017091;28;20057;-69
2023/10/14 14:18:40;;;;;;;1.38;0.82;;;39.60;18.10;;;;;;5017816;28;20026;-69
2023/10/14 14:21:06;;;;;;;1.83;0.88;;;39.50;18.00;;;;;;5016575;28;20060;-69
2023/10/14 14:23:32;;;;;;;2.05;1.88;;;39.00;18.40;;;;;;5017400;28;20123;-69
2023/10/14 14:25:59;;;;;;;3.25;1.65;;;38.70;18.30;;;;;;5034591;28;20080;-69
2023/10/14 14:28:25;;;;;;;2.47;0.80;;;38.30;18.70;;;;;;5035383;28;20080;-70
2023/10/14 14:30:51;;;;;;;2.42;1.98;;;38.00;19.60;;;;;;5016560;28;20114;-69
2023/10/14 14:33:17;;;;;;;1.55;1.20;;;38.00;19.40;;;;;;5034804;28;20494;-69
2023/10/14 14:35:46;;;;;;;1.75;1.17;;;37.80;19.10;;;;;;5016607;28;20029;-69
2023/10/14 14:38:15;;;;;;;1.30;0.88;;;37.80;19.30;;;;;;5034971;28;20045;-69
2023/10/14 14:40:42;;;;;;;3.50;1.35;;;37.80;19.80;;;;;;5016806;28;20026;-69
2023/10/14 14:43:09;;;;;;;1.30;0.80;;;37.80;20.10;;;;;;5034927;28;20113;-70
2023/10/14 14:45:35;;;;;;;2.05;1.30;;;37.90;20.10;;;;;;5034176;28;20026;-69
2023/10/14 14:48:02;;;;;;;2.33;1.45;;;37.80;20.00;;;;;;5000534;28;20422;-69